createdAt,value
2022-08-07T00:00:22.790Z,21.24
2022-08-07T00:02:56.005Z,21.18
2022-08-07T00:05:24.642Z,21.13
2022-08-07T00:07:58.492Z,21.07
2022-08-07T00:10:26.311Z,21.03
2022-08-07T00:12:57.991Z,20.97
2022-08-07T00:15:25.215Z,20.91
2022-08-07T00:17:54.583Z,20.85
2022-08-07T00:20:29.809Z,20.80
2022-08-07T00:22:51.945Z,20.73
2022-08-07T00:25:19.649Z,20.67
2022-08-07T00:27:53.383Z,20.61
2022-08-07T00:30:26.414Z,20.54
2022-08-07T00:32:49.312Z,20.49
2022-08-07T00:35:20.731Z,20.45
2022-08-07T00:37:50.481Z,20.39
2022-08-07T00:40:36.664Z,20.35
2022-08-07T00:42:50.184Z,20.31
2022-08-07T00:45:17.918Z,20.24
2022-08-07T00:48:07.810Z,20.19
2022-08-07T00:50:19.186Z,20.12
2022-08-07T00:52:47.547Z,20.07
2022-08-07T00:55:17.337Z,20.02
2022-08-07T00:57:55.989Z,19.97
2022-08-07T01:00:15.285Z,19.92
2022-08-07T01:02:44.178Z,19.87
2022-08-07T01:05:19.467Z,19.84
2022-08-07T01:07:41.800Z,19.82
2022-08-07T01:10:11.305Z,19.77
2022-08-07T01:12:43.948Z,19.74
2022-08-07T01:15:17.650Z,19.70
2022-08-07T01:17:41.078Z,19.67
2022-08-07T01:20:16.548Z,19.65
2022-08-07T01:22:46.721Z,19.67
2022-08-07T01:25:54.302Z,19.64
2022-08-07T01:27:51.234Z,19.62
2022-08-07T01:30:11.930Z,19.60
2022-08-07T01:32:41.469Z,19.59
2022-08-07T01:35:09.713Z,19.58
2022-08-07T01:37:39.888Z,19.59
2022-08-07T01:40:14.957Z,19.57
2022-08-07T01:42:57.225Z,19.54
2022-08-07T01:45:17.850Z,19.51
2022-08-07T01:48:18.401Z,19.45
2022-08-07T01:50:11.623Z,19.38
2022-08-07T01:52:49.395Z,19.35
2022-08-07T01:55:22.080Z,19.33
2022-08-07T01:58:06.972Z,19.31
2022-08-07T02:00:13.858Z,19.31
2022-08-07T02:03:15.952Z,19.28
2022-08-07T02:05:42.993Z,19.25
2022-08-07T02:07:52.511Z,19.22
2022-08-07T02:10:26.733Z,19.21
2022-08-07T02:12:57.006Z,19.19
2022-08-07T02:15:29.193Z,19.19
2022-08-07T02:17:59.763Z,19.17
2022-08-07T02:20:28.272Z,19.15
2022-08-07T02:23:01.374Z,19.14
2022-08-07T02:26:30.570Z,19.14
2022-08-07T02:28:04.638Z,19.14
2022-08-07T02:30:35.837Z,19.10
2022-08-07T02:33:09.350Z,19.07
2022-08-07T02:36:29.619Z,19.06
2022-08-07T02:38:06.273Z,19.02
2022-08-07T02:40:37.527Z,18.98
2022-08-07T02:43:07.762Z,18.94
2022-08-07T02:45:58.270Z,18.91
2022-08-07T02:48:10.262Z,18.87
2022-08-07T02:50:41.416Z,18.82
2022-08-07T02:53:27.455Z,18.76
2022-08-07T02:56:02.407Z,18.68
2022-08-07T02:58:27.313Z,18.58
2022-08-07T03:00:57.088Z,18.53
2022-08-07T03:03:49.423Z,18.49
2022-08-07T03:06:01.270Z,18.41
2022-08-07T03:08:29.284Z,18.34
2022-08-07T03:10:59.649Z,18.30
2022-08-07T03:13:28.872Z,18.26
2022-08-07T03:15:58.871Z,18.23
2022-08-07T03:18:34.575Z,18.23
2022-08-07T03:20:59.094Z,18.24
2022-08-07T03:23:33.895Z,18.27
2022-08-07T03:26:00.023Z,18.30
2022-08-07T03:28:38.311Z,18.32
2022-08-07T03:31:18.201Z,18.35
2022-08-07T03:33:50.233Z,18.38
2022-08-07T03:36:21.894Z,18.43
2022-08-07T03:38:54.013Z,18.47
2022-08-07T03:41:42.173Z,18.51
2022-08-07T03:43:57.430Z,18.54
2022-08-07T03:46:23.630Z,18.59
2022-08-07T03:49:02.087Z,18.95
2022-08-07T03:51:23.620Z,19.55
2022-08-07T03:54:32.912Z,20.14
2022-08-07T03:56:33.518Z,20.68
2022-08-07T03:59:08.457Z,21.10
2022-08-07T04:01:24.049Z,21.52
2022-08-07T04:03:54.971Z,22.02
2022-08-07T04:06:36.163Z,22.53
2022-08-07T04:08:52.321Z,22.94
2022-08-07T04:12:24.066Z,23.34
2022-08-07T04:14:09.487Z,23.83
2022-08-07T04:16:31.162Z,24.26
2022-08-07T04:18:59.704Z,24.62
2022-08-07T04:21:20.882Z,24.93
2022-08-07T04:24:03.538Z,25.33
2022-08-07T04:26:21.683Z,25.73
2022-08-07T04:28:50.153Z,26.02
2022-08-07T04:31:20.155Z,26.26
2022-08-07T04:33:54.828Z,26.54
2022-08-07T04:36:18.281Z,26.76
2022-08-07T04:38:48.652Z,26.66
2022-08-07T04:41:18.207Z,26.70
2022-08-07T04:44:12.542Z,26.89
2022-08-07T04:46:42.794Z,27.19
2022-08-07T04:49:17.750Z,27.62
2022-08-07T04:52:02.615Z,27.90
2022-08-07T04:54:58.194Z,28.25
2022-08-07T04:58:07.667Z,28.52
2022-08-07T05:00:18.831Z,28.68
2022-08-07T05:02:56.924Z,28.84
2022-08-07T05:05:53.606Z,28.82
2022-08-07T05:08:59.328Z,28.66
2022-08-07T05:11:24.190Z,28.65
2022-08-07T05:14:52.258Z,28.91
2022-08-07T05:16:33.037Z,29.06
2022-08-07T05:19:04.287Z,29.09
2022-08-07T05:22:00.472Z,28.92
2022-08-07T05:24:07.062Z,28.53
2022-08-07T05:26:35.462Z,28.42
2022-08-07T05:29:08.122Z,28.49
2022-08-07T05:31:47.391Z,28.51
2022-08-07T05:34:15.854Z,28.38
2022-08-07T05:36:53.727Z,28.45
2022-08-07T05:40:05.841Z,28.34
2022-08-07T05:42:01.159Z,28.29
2022-08-07T05:44:29.966Z,28.43
2022-08-07T05:47:00.168Z,28.40
2022-08-07T05:49:40.877Z,28.40
2022-08-07T05:51:59.571Z,28.39
2022-08-07T05:54:44.035Z,28.61
2022-08-07T05:56:58.972Z,29.03
2022-08-07T05:59:28.009Z,29.28
2022-08-07T06:01:58.413Z,29.35
2022-08-07T06:04:30.241Z,29.30
2022-08-07T06:07:03.929Z,29.21
2022-08-07T06:09:45.088Z,29.30
2022-08-07T06:11:58.303Z,29.71
2022-08-07T06:14:28.792Z,30.12
2022-08-07T06:16:57.979Z,30.49
2022-08-07T06:19:48.013Z,30.69
2022-08-07T06:22:15.203Z,30.78
2022-08-07T06:24:52.437Z,30.92
2022-08-07T06:26:59.644Z,31.14
2022-08-07T06:29:29.516Z,31.49
2022-08-07T06:31:57.213Z,31.64
2022-08-07T06:34:29.820Z,31.56
2022-08-07T06:36:56.124Z,31.81
2022-08-07T06:40:15.989Z,32.14
2022-08-07T06:42:02.251Z,32.17
2022-08-07T06:44:34.225Z,32.27
2022-08-07T06:47:10.453Z,32.60
2022-08-07T06:49:29.844Z,32.80
2022-08-07T06:52:02.917Z,33.09
2022-08-07T06:55:28.487Z,33.31
2022-08-07T06:57:00.748Z,33.35
2022-08-07T07:00:12.533Z,33.44
2022-08-07T07:02:09.086Z,33.44
2022-08-07T07:04:43.570Z,33.32
2022-08-07T07:07:19.058Z,33.15
2022-08-07T07:09:37.814Z,33.20
2022-08-07T07:12:21.670Z,33.35
2022-08-07T07:14:56.173Z,33.30
2022-08-07T07:17:38.854Z,33.07
2022-08-07T07:20:08.807Z,33.17
2022-08-07T07:24:05.101Z,33.22
2022-08-07T07:26:33.145Z,33.10
2022-08-07T07:27:55.501Z,33.12
2022-08-07T07:30:12.978Z,33.33
2022-08-07T07:32:43.549Z,33.48
2022-08-07T07:35:14.195Z,33.65
2022-08-07T07:37:44.350Z,33.79
2022-08-07T07:40:17.419Z,33.92
2022-08-07T07:42:53.720Z,34.07
2022-08-07T07:45:18.522Z,34.38
2022-08-07T07:47:52.492Z,34.67
2022-08-07T07:50:33.400Z,34.78
2022-08-07T07:52:52.515Z,34.95
2022-08-07T07:55:20.792Z,34.88
2022-08-07T07:57:53.413Z,34.90
2022-08-07T08:00:31.500Z,34.74
2022-08-07T08:03:05.039Z,34.79
2022-08-07T08:05:24.838Z,34.86
2022-08-07T08:08:01.203Z,34.86
2022-08-07T08:10:38.117Z,34.79
2022-08-07T08:12:59.795Z,34.48
2022-08-07T08:15:24.008Z,34.06
2022-08-07T08:17:57.375Z,33.99
2022-08-07T08:20:23.087Z,34.13
2022-08-07T08:23:12.459Z,34.29
2022-08-07T08:26:06.679Z,34.46
2022-08-07T08:28:37.589Z,34.69
2022-08-07T08:31:03.791Z,34.89
2022-08-07T08:33:33.899Z,34.65
2022-08-07T08:36:03.205Z,34.33
2022-08-07T08:38:41.274Z,34.24
2022-08-07T08:41:56.647Z,34.23
2022-08-07T08:44:44.370Z,34.10
2022-08-07T08:47:22.845Z,33.74
2022-08-07T08:50:17.568Z,33.64
2022-08-07T08:52:59.815Z,33.85
2022-08-07T08:55:55.556Z,34.05
2022-08-07T08:58:24.708Z,34.12
2022-08-07T09:00:52.747Z,34.28
2022-08-07T09:03:47.975Z,34.56
2022-08-07T09:06:05.996Z,34.83
2022-08-07T09:08:40.834Z,35.01
2022-08-07T09:11:34.960Z,35.26
2022-08-07T09:14:02.559Z,35.44
2022-08-07T09:16:57.389Z,35.54
2022-08-07T09:19:59.178Z,35.34
2022-08-07T09:24:32.441Z,35.24
2022-08-07T09:25:26.309Z,35.24
2022-08-07T09:28:06.061Z,35.44
2022-08-07T09:30:51.642Z,35.11
2022-08-07T09:33:52.357Z,35.03
2022-08-07T09:36:18.210Z,35.22
2022-08-07T09:38:58.055Z,35.36
2022-08-07T09:41:36.220Z,35.26
2022-08-07T09:44:58.352Z,34.94
2022-08-07T09:47:52.126Z,34.55
2022-08-07T09:50:19.278Z,34.17
2022-08-07T09:53:03.296Z,34.05
2022-08-07T09:56:05.115Z,34.04
2022-08-07T09:59:07.760Z,33.95
2022-08-07T10:01:51.763Z,34.17
2022-08-07T10:04:28.174Z,34.20
2022-08-07T10:07:24.331Z,34.08
2022-08-07T10:10:00.972Z,33.95
2022-08-07T10:12:41.618Z,33.84
2022-08-07T10:15:23.656Z,33.73
2022-08-07T10:18:12.943Z,33.63
2022-08-07T10:20:51.911Z,33.47
2022-08-07T10:24:05.410Z,33.33
2022-08-07T10:26:24.892Z,33.21
2022-08-07T10:29:24.821Z,33.12
2022-08-07T10:31:58.000Z,33.00
2022-08-07T10:34:32.528Z,32.94
2022-08-07T10:37:22.303Z,32.91
2022-08-07T10:40:06.176Z,32.88
2022-08-07T10:42:41.026Z,32.91
2022-08-07T10:45:16.538Z,32.94
2022-08-07T10:48:06.059Z,32.92
2022-08-07T10:50:42.115Z,32.90
2022-08-07T10:53:41.780Z,32.95
2022-08-07T10:56:31.486Z,33.05
2022-08-07T10:59:21.194Z,33.15
2022-08-07T11:02:12.290Z,33.18
2022-08-07T11:04:47.369Z,33.17
2022-08-07T11:07:24.774Z,33.24
2022-08-07T11:10:10.389Z,33.56
2022-08-07T11:12:31.499Z,33.78
2022-08-07T11:15:14.516Z,33.90
2022-08-07T11:17:53.985Z,34.06
2022-08-07T11:20:31.497Z,33.71
2022-08-07T11:23:20.511Z,33.67
2022-08-07T11:26:06.192Z,33.90
2022-08-07T11:28:37.842Z,33.91
2022-08-07T11:31:24.207Z,33.98
2022-08-07T11:34:16.443Z,34.07
2022-08-07T11:37:00.654Z,34.02
2022-08-07T11:40:03.391Z,34.07
2022-08-07T11:42:43.277Z,34.13
2022-08-07T11:45:35.406Z,34.20
2022-08-07T11:48:30.060Z,34.24
2022-08-07T11:51:22.908Z,34.27
2022-08-07T11:54:02.659Z,34.43
2022-08-07T11:57:03.745Z,34.48
2022-08-07T12:00:10.494Z,34.32
2022-08-07T12:02:30.423Z,34.27
2022-08-07T12:05:47.102Z,34.28
2022-08-07T12:08:31.786Z,34.28
2022-08-07T12:11:00.734Z,34.20
2022-08-07T12:13:35.657Z,34.07
2022-08-07T12:16:08.945Z,33.89
2022-08-07T12:18:38.904Z,33.63
2022-08-07T12:21:56.005Z,33.46
2022-08-07T12:24:12.396Z,33.47
2022-08-07T12:26:49.002Z,33.65
2022-08-07T12:29:37.331Z,33.84
2022-08-07T12:32:17.180Z,33.93
2022-08-07T12:34:49.518Z,33.89
2022-08-07T12:37:23.363Z,33.90
2022-08-07T12:39:51.033Z,34.00
2022-08-07T12:42:27.259Z,34.12
2022-08-07T12:44:51.421Z,34.14
2022-08-07T12:47:44.120Z,34.27
2022-08-07T12:50:38.612Z,34.33
2022-08-07T12:53:21.988Z,34.36
2022-08-07T12:56:09.350Z,34.37
2022-08-07T12:58:39.472Z,34.36
2022-08-07T13:01:48.097Z,34.42
2022-08-07T13:04:35.661Z,34.55
2022-08-07T13:07:09.902Z,34.60
2022-08-07T13:10:28.443Z,34.43
2022-08-07T13:12:47.394Z,34.33
2022-08-07T13:15:23.553Z,34.29
2022-08-07T13:18:26.582Z,34.25
2022-08-07T13:20:53.783Z,34.31
2022-08-07T13:24:01.021Z,34.36
2022-08-07T13:26:26.601Z,34.30
2022-08-07T13:29:15.789Z,34.00
2022-08-07T13:32:06.245Z,33.85
2022-08-07T13:34:38.563Z,33.67
2022-08-07T13:37:25.014Z,33.39
2022-08-07T13:40:33.245Z,33.01
2022-08-07T13:42:39.676Z,32.64
2022-08-07T13:46:07.005Z,32.34
2022-08-07T13:48:04.300Z,31.96
2022-08-07T13:50:33.462Z,31.76
2022-08-07T13:52:44.233Z,31.70
2022-08-07T13:55:19.713Z,31.71
2022-08-07T13:57:48.697Z,31.74
2022-08-07T14:00:26.943Z,31.77
2022-08-07T14:02:51.065Z,31.79
2022-08-07T14:05:21.637Z,31.80
2022-08-07T14:08:00.101Z,31.79
2022-08-07T14:10:27.963Z,31.85
2022-08-07T14:12:55.526Z,31.92
2022-08-07T14:15:35.045Z,31.80
2022-08-07T14:18:23.832Z,31.74
2022-08-07T14:20:38.405Z,31.74
2022-08-07T14:23:58.639Z,31.76
2022-08-07T14:25:59.349Z,31.75
2022-08-07T14:28:33.095Z,31.71
2022-08-07T14:30:58.539Z,31.73
2022-08-07T14:33:44.162Z,31.81
2022-08-07T14:36:02.179Z,31.80
2022-08-07T14:38:33.468Z,31.83
2022-08-07T14:41:12.481Z,31.93
2022-08-07T14:43:58.188Z,31.91
2022-08-07T14:46:11.324Z,31.95
2022-08-07T14:48:44.817Z,32.03
2022-08-07T14:51:20.816Z,32.08
2022-08-07T14:54:30.179Z,32.01
2022-08-07T14:58:55.354Z,32.15
2022-08-07T15:04:05.681Z,32.36
2022-08-07T15:06:33.937Z,32.40
2022-08-07T15:09:59.977Z,32.38
2022-08-07T15:11:53.192Z,32.32
2022-08-07T15:14:30.675Z,32.21
2022-08-07T15:17:04.374Z,32.07
2022-08-07T15:20:31.255Z,32.01
2022-08-07T15:22:07.022Z,31.85
2022-08-07T15:25:15.651Z,31.46
2022-08-07T15:27:16.759Z,30.79
2022-08-07T15:30:04.436Z,30.18
2022-08-07T15:32:39.175Z,29.72
2022-08-07T15:34:56.816Z,29.22
2022-08-07T15:37:27.588Z,28.82
2022-08-07T15:40:02.502Z,28.49
2022-08-07T15:45:56.291Z,28.04
2022-08-07T15:48:01.956Z,27.95
2022-08-07T15:51:01.584Z,27.74
2022-08-07T15:53:08.529Z,27.59
2022-08-07T15:56:01.738Z,27.52
2022-08-07T15:58:09.427Z,27.53
2022-08-07T16:00:39.480Z,27.52
2022-08-07T16:03:20.830Z,27.44
2022-08-07T16:05:49.782Z,27.40
2022-08-07T16:08:31.785Z,27.42
2022-08-07T16:11:26.719Z,27.41
2022-08-07T16:13:59.077Z,27.34
2022-08-07T16:16:42.948Z,27.31
2022-08-07T16:19:43.089Z,27.34
2022-08-07T16:22:17.731Z,27.27
2022-08-07T16:24:52.669Z,27.24
2022-08-07T16:27:20.868Z,27.33
2022-08-07T16:30:31.553Z,27.31
2022-08-07T16:32:54.595Z,27.28
2022-08-07T16:35:50.725Z,27.29
2022-08-07T16:38:05.600Z,27.17
2022-08-07T16:41:01.737Z,27.16
2022-08-07T16:44:06.218Z,27.17
2022-08-07T16:47:07.896Z,27.15
2022-08-07T16:50:20.281Z,27.10
2022-08-07T16:52:52.723Z,27.04
2022-08-07T16:55:08.351Z,27.01
2022-08-07T16:58:02.184Z,26.98
2022-08-07T17:00:29.624Z,26.92
2022-08-07T17:03:17.523Z,26.89
2022-08-07T17:06:19.635Z,26.90
2022-08-07T17:09:10.352Z,26.90
2022-08-07T17:11:14.507Z,26.92
2022-08-07T17:14:18.369Z,26.94
2022-08-07T17:16:19.048Z,26.92
2022-08-07T17:18:53.755Z,26.93
2022-08-07T17:21:24.721Z,26.92
2022-08-07T17:24:23.781Z,26.91
2022-08-07T17:27:09.853Z,26.86
